sensor_id;sensor_type;location;lat;lon;timestamp;pressure;altitude;pressure_sealevel;temperature;humidity
48644;BME280;34928;37.302;-121.984;2023-04-22T00:08:13;101426.0;;;28.78;23.84
48644;BME280;34928;37.302;-121.984;2023-04-22T00:28:49;101416.0;;;29.07;23.58
48644;BME280;34928;37.302;-121.984;2023-04-22T00:38:53;101422.0;;;29.11;23.53
48644;BME280;34928;37.302;-121.984;2023-04-22T00:59:24;101425.0;;;29.08;23.49
48644;BME280;34928;37.302;-121.984;2023-04-22T01:09:28;101414.0;;;29.60;23.46
48644;BME280;34928;37.302;-121.984;2023-04-22T01:19:33;101410.0;;;29.36;23.60
48644;BME280;34928;37.302;-121.984;2023-04-22T01:29:48;101401.0;;;29.42;23.73
48644;BME280;34928;37.302;-121.984;2023-04-22T01:39:54;101400.0;;;29.34;23.63
48644;BME280;34928;37.302;-121.984;2023-04-22T01:49:58;101404.0;;;29.63;23.61
48644;BME280;34928;37.302;-121.984;2023-04-22T02:00:09;101405.0;;;29.46;23.65
48644;BME280;34928;37.302;-121.984;2023-04-22T02:10:13;101406.0;;;30.00;23.73
48644;BME280;34928;37.302;-121.984;2023-04-22T02:20:23;101405.0;;;29.77;23.86
48644;BME280;34928;37.302;-121.984;2023-04-22T02:30:29;101397.0;;;29.89;23.98
48644;BME280;34928;37.302;-121.984;2023-04-22T02:40:38;101391.0;;;30.18;23.71
48644;BME280;34928;37.302;-121.984;2023-04-22T03:01:03;101384.0;;;30.29;23.65
48644;BME280;34928;37.302;-121.984;2023-04-22T03:11:09;101389.0;;;30.24;23.86
48644;BME280;34928;37.302;-121.984;2023-04-22T03:42:04;101381.0;;;30.09;26.15
48644;BME280;34928;37.302;-121.984;2023-04-22T03:52:08;101383.0;;;30.12;26.06
48644;BME280;34928;37.302;-121.984;2023-04-22T04:02:24;101397.0;;;30.14;26.03
48644;BME280;34928;37.302;-121.984;2023-04-22T04:12:28;101398.0;;;30.45;25.97
48644;BME280;34928;37.302;-121.984;2023-04-22T04:22:38;101404.0;;;30.19;25.83
48644;BME280;34928;37.302;-121.984;2023-04-22T04:32:48;101405.0;;;30.15;25.76
48644;BME280;34928;37.302;-121.984;2023-04-22T04:42:53;101403.0;;;30.03;25.69
48644;BME280;34928;37.302;-121.984;2023-04-22T04:53:03;101399.0;;;30.39;25.80
48644;BME280;34928;37.302;-121.984;2023-04-22T05:03:08;101399.0;;;30.09;25.62
48644;BME280;34928;37.302;-121.984;2023-04-22T05:34:08;101387.0;;;29.92;25.97
48644;BME280;34928;37.302;-121.984;2023-04-22T05:54:38;101380.0;;;29.71;26.15
48644;BME280;34928;37.302;-121.984;2023-04-22T06:04:43;101382.0;;;30.13;26.18
48644;BME280;34928;37.302;-121.984;2023-04-22T06:14:49;101380.0;;;30.07;25.66
48644;BME280;34928;37.302;-121.984;2023-04-22T06:24:53;101374.0;;;29.68;25.64
48644;BME280;34928;37.302;-121.984;2023-04-22T06:34:58;101366.0;;;29.92;25.94
48644;BME280;34928;37.302;-121.984;2023-04-22T06:45:03;101362.0;;;29.65;25.89
48644;BME280;34928;37.302;-121.984;2023-04-22T06:55:09;101353.0;;;29.59;25.95
48644;BME280;34928;37.302;-121.984;2023-04-22T07:05:14;101347.0;;;29.50;25.85
48644;BME280;34928;37.302;-121.984;2023-04-22T07:15:19;101337.0;;;29.39;25.77
48644;BME280;34928;37.302;-121.984;2023-04-22T07:25:23;101333.0;;;29.64;25.37
48644;BME280;34928;37.302;-121.984;2023-04-22T07:35:28;101324.0;;;29.27;25.21
48644;BME280;34928;37.302;-121.984;2023-04-22T07:45:33;101317.0;;;29.36;25.20
48644;BME280;34928;37.302;-121.984;2023-04-22T07:55:38;101312.0;;;29.27;25.19
48644;BME280;34928;37.302;-121.984;2023-04-22T08:05:43;101310.0;;;29.18;25.20
48644;BME280;34928;37.302;-121.984;2023-04-22T08:15:48;101304.0;;;29.00;25.25
48644;BME280;34928;37.302;-121.984;2023-04-22T08:25:53;101293.0;;;28.85;25.24
48644;BME280;34928;37.302;-121.984;2023-04-22T08:36:03;101289.0;;;28.73;25.24
48644;BME280;34928;37.302;-121.984;2023-04-22T08:46:08;101278.0;;;28.61;25.29
48644;BME280;34928;37.302;-121.984;2023-04-22T08:56:13;101267.0;;;28.54;25.18
48644;BME280;34928;37.302;-121.984;2023-04-22T09:06:19;101254.0;;;28.50;25.11
48644;BME280;34928;37.302;-121.984;2023-04-22T09:16:30;101240.0;;;28.64;25.12
48644;BME280;34928;37.302;-121.984;2023-04-22T09:26:33;101231.0;;;28.37;25.06
48644;BME280;34928;37.302;-121.984;2023-04-22T09:36:44;101220.0;;;28.30;25.07
48644;BME280;34928;37.302;-121.984;2023-04-22T09:46:49;101205.0;;;28.20;25.09
48644;BME280;34928;37.302;-121.984;2023-04-22T09:56:58;101195.0;;;28.50;25.05
48644;BME280;34928;37.302;-121.984;2023-04-22T10:07:03;101191.0;;;28.02;24.46
48644;BME280;34928;37.302;-121.984;2023-04-22T10:17:08;101183.0;;;27.93;24.35
48644;BME280;34928;37.302;-121.984;2023-04-22T10:27:13;101171.0;;;28.04;24.23
48644;BME280;34928;37.302;-121.984;2023-04-22T10:37:24;101168.0;;;27.97;24.20
48644;BME280;34928;37.302;-121.984;2023-04-22T10:47:31;101169.0;;;27.91;24.18
48644;BME280;34928;37.302;-121.984;2023-04-22T10:57:39;101170.0;;;27.89;24.08
48644;BME280;34928;37.302;-121.984;2023-04-22T11:07:49;101175.0;;;27.79;24.08
48644;BME280;34928;37.302;-121.984;2023-04-22T11:17:59;101168.0;;;27.73;24.06
48644;BME280;34928;37.302;-121.984;2023-04-22T11:28:03;101168.0;;;27.41;24.04
48644;BME280;34928;37.302;-121.984;2023-04-22T11:38:08;101156.0;;;27.53;24.04
48644;BME280;34928;37.302;-121.984;2023-04-22T11:48:14;101141.0;;;27.65;24.07
48644;BME280;34928;37.302;-121.984;2023-04-22T11:58:18;101134.0;;;27.31;24.05
48644;BME280;34928;37.302;-121.984;2023-04-22T12:08:24;101123.0;;;27.26;24.02
48644;BME280;34928;37.302;-121.984;2023-04-22T12:18:29;101116.0;;;27.20;24.04
48644;BME280;34928;37.302;-121.984;2023-04-22T12:28:33;101110.0;;;27.12;24.01
48644;BME280;34928;37.302;-121.984;2023-04-22T12:38:38;101097.0;;;27.09;23.94
48644;BME280;34928;37.302;-121.984;2023-04-22T12:48:44;101091.0;;;27.26;23.96
48644;BME280;34928;37.302;-121.984;2023-04-22T12:58:48;101083.0;;;27.13;23.97
48644;BME280;34928;37.302;-121.984;2023-04-22T13:08:53;101083.0;;;27.03;23.97
48644;BME280;34928;37.302;-121.984;2023-04-22T13:18:59;101085.0;;;26.93;23.99
48644;BME280;34928;37.302;-121.984;2023-04-22T13:29:03;101092.0;;;26.56;23.99
48644;BME280;34928;37.302;-121.984;2023-04-22T13:39:08;101092.0;;;26.57;23.91
48644;BME280;34928;37.302;-121.984;2023-04-22T13:49:13;101095.0;;;26.89;23.94
48644;BME280;34928;37.302;-121.984;2023-04-22T13:59:19;101100.0;;;26.63;23.95
48644;BME280;34928;37.302;-121.984;2023-04-22T14:09:22;101109.0;;;26.27;23.94
48644;BME280;34928;37.302;-121.984;2023-04-22T14:19:28;101119.0;;;26.47;23.93
48644;BME280;34928;37.302;-121.984;2023-04-22T14:29:33;101113.0;;;26.63;24.00
48644;BME280;34928;37.302;-121.984;2023-04-22T14:39:38;101121.0;;;26.58;24.01
48644;BME280;34928;37.302;-121.984;2023-04-22T14:49:45;101118.0;;;26.54;24.06
48644;BME280;34928;37.302;-121.984;2023-04-22T14:59:48;101115.0;;;26.43;24.31
48644;BME280;34928;37.302;-121.984;2023-04-22T15:09:53;101117.0;;;26.65;24.54
48644;BME280;34928;37.302;-121.984;2023-04-22T15:19:59;101119.0;;;26.74;25.12
48644;BME280;34928;37.302;-121.984;2023-04-22T15:30:04;101104.0;;;26.65;25.01
48644;BME280;34928;37.302;-121.984;2023-04-22T15:40:08;101090.0;;;26.30;24.43
48644;BME280;34928;37.302;-121.984;2023-04-22T15:50:14;101082.0;;;26.70;25.42
48644;BME280;34928;37.302;-121.984;2023-04-22T16:00:18;101071.0;;;26.52;25.13
48644;BME280;34928;37.302;-121.984;2023-04-22T16:10:22;101062.0;;;25.92;26.41
48644;BME280;34928;37.302;-121.984;2023-04-22T16:20:31;101050.0;;;26.27;27.10
48644;BME280;34928;37.302;-121.984;2023-04-22T16:30:39;101041.0;;;26.62;26.46
48644;BME280;34928;37.302;-121.984;2023-04-22T16:40:43;101033.0;;;26.36;27.76
48644;BME280;34928;37.302;-121.984;2023-04-22T16:50:48;101030.0;;;26.91;27.37
48644;BME280;34928;37.302;-121.984;2023-04-22T17:00:53;101018.0;;;26.78;28.06
48644;BME280;34928;37.302;-121.984;2023-04-22T17:10:58;101016.0;;;26.66;27.25
48644;BME280;34928;37.302;-121.984;2023-04-22T17:21:04;101009.0;;;26.63;27.61
48644;BME280;34928;37.302;-121.984;2023-04-22T17:31:09;101004.0;;;26.62;26.87
48644;BME280;34928;37.302;-121.984;2023-04-22T17:41:13;101001.0;;;26.51;26.72
48644;BME280;34928;37.302;-121.984;2023-04-22T17:51:18;100991.0;;;26.48;26.53
48644;BME280;34928;37.302;-121.984;2023-04-22T18:01:23;100985.0;;;26.91;26.95
48644;BME280;34928;37.302;-121.984;2023-04-22T18:11:28;100985.0;;;26.91;27.23
48644;BME280;34928;37.302;-121.984;2023-04-22T18:21:34;100986.0;;;27.26;26.70
48644;BME280;34928;37.302;-121.984;2023-04-22T18:31:38;100979.0;;;27.09;26.81
48644;BME280;34928;37.302;-121.984;2023-04-22T18:41:43;100967.0;;;27.19;27.03
48644;BME280;34928;37.302;-121.984;2023-04-22T18:51:47;100956.0;;;27.20;26.66
48644;BME280;34928;37.302;-121.984;2023-04-22T19:01:53;100954.0;;;27.24;26.71
48644;BME280;34928;37.302;-121.984;2023-04-22T19:11:58;100948.0;;;27.36;26.73
48644;BME280;34928;37.302;-121.984;2023-04-22T19:22:03;100946.0;;;27.24;26.32
48644;BME280;34928;37.302;-121.984;2023-04-22T19:32:09;100929.0;;;27.17;26.29
48644;BME280;34928;37.302;-121.984;2023-04-22T19:42:13;100926.0;;;27.14;26.23
48644;BME280;34928;37.302;-121.984;2023-04-22T19:52:19;100907.0;;;26.91;26.21
48644;BME280;34928;37.302;-121.984;2023-04-22T20:02:29;100888.0;;;27.31;25.87
48644;BME280;34928;37.302;-121.984;2023-04-22T20:12:34;100866.0;;;27.18;25.82
48644;BME280;34928;37.302;-121.984;2023-04-22T20:22:40;100855.0;;;27.20;25.82
48644;BME280;34928;37.302;-121.984;2023-04-22T20:32:43;100850.0;;;27.46;25.55
48644;BME280;34928;37.302;-121.984;2023-04-22T20:42:48;100836.0;;;27.62;25.35
48644;BME280;34928;37.302;-121.984;2023-04-22T20:52:53;100824.0;;;28.14;25.10
48644;BME280;34928;37.302;-121.984;2023-04-22T21:02:58;100820.0;;;28.53;25.57
48644;BME280;34928;37.302;-121.984;2023-04-22T21:13:03;100809.0;;;28.33;25.72
48644;BME280;34928;37.302;-121.984;2023-04-22T21:23:08;100801.0;;;28.50;25.74
48644;BME280;34928;37.302;-121.984;2023-04-22T21:33:13;100775.0;;;27.58;26.42
48644;BME280;34928;37.302;-121.984;2023-04-22T21:43:18;100772.0;;;27.37;26.61
48644;BME280;34928;37.302;-121.984;2023-04-22T21:53:22;100765.0;;;27.82;26.72
48644;BME280;34928;37.302;-121.984;2023-04-22T22:03:29;100757.0;;;27.21;27.49
48644;BME280;34928;37.302;-121.984;2023-04-22T22:13:38;100751.0;;;28.36;26.73
48644;BME280;34928;37.302;-121.984;2023-04-22T22:23:43;100740.0;;;27.78;26.43
48644;BME280;34928;37.302;-121.984;2023-04-22T22:33:48;100734.0;;;28.63;25.71
48644;BME280;34928;37.302;-121.984;2023-04-22T22:43:53;100724.0;;;28.64;25.13
48644;BME280;34928;37.302;-121.984;2023-04-22T22:53:58;100719.0;;;29.11;24.90
48644;BME280;34928;37.302;-121.984;2023-04-22T23:04:04;100718.0;;;29.42;24.58
48644;BME280;34928;37.302;-121.984;2023-04-22T23:14:07;100715.0;;;29.64;24.50
48644;BME280;34928;37.302;-121.984;2023-04-22T23:24:14;100691.0;;;29.17;25.01
48644;BME280;34928;37.302;-121.984;2023-04-22T23:34:21;100687.0;;;29.58;24.82
48644;BME280;34928;37.302;-121.984;2023-04-22T23:44:27;100677.0;;;29.62;25.02
48644;BME280;34928;37.302;-121.984;2023-04-22T23:54:33;100680.0;;;30.05;24.82
